Time;durP1;ratioP1;P1;durP2;ratioP2;P2;SDS_P1;SDS_P2;PMS_P1;PMS_P2;Temp;Humidity;BMP_temperature;BMP_pressure;BME280_temperature;BME280_humidity;BME280_pressure;Samples;Min_cycle;Max_cycle;Signal;HPM_P1;HPM_P2
2023/12/08 00:00:46;;;;;;;19.20;8.00;;;;;;;;;;5052096;28;20393;-40
2023/12/08 00:03:16;;;;;;;15.73;7.80;;;;;;;;;;5051997;28;20443;-40
2023/12/08 00:05:43;;;;;;;21.70;8.05;;;;;;;;;;5049400;28;20908;-40
2023/12/08 00:08:10;;;;;;;20.58;8.18;;;;;;;;;;5049488;28;20407;-40
2023/12/08 00:10:37;;;;;;;22.30;7.97;;;;;;;;;;5057399;28;20401;-40
2023/12/08 00:13:04;;;;;;;17.52;8.30;;;;;;;;;;5054767;28;20408;-40
2023/12/08 00:15:31;;;;;;;21.03;8.00;;;;;;;;;;5064599;28;20484;-39
2023/12/08 00:17:58;;;;;;;21.50;9.20;;;;;;;;;;5047576;28;20891;-40
2023/12/08 00:20:26;;;;;;;20.00;8.55;;;;;;;;;;5049341;28;20395;-41
2023/12/08 00:22:53;;;;;;;22.07;8.67;;;;;;;;;;5055496;28;20402;-41
2023/12/08 00:25:20;;;;;;;17.95;8.55;;;;;;;;;;5050593;28;20401;-40
2023/12/08 00:27:48;;;;;;;22.00;8.95;;;;;;;;;;5041865;28;20564;-40
2023/12/08 00:30:15;;;;;;;19.60;8.73;;;;;;;;;;5073585;28;20395;-40
2023/12/08 00:32:42;;;;;;;19.00;8.73;;;;;;;;;;5054001;28;20412;-40
2023/12/08 00:35:09;;;;;;;21.67;9.18;;;;;;;;;;5072210;28;20828;-39
2023/12/08 00:37:36;;;;;;;24.52;9.00;;;;;;;;;;5062261;28;20511;-40
2023/12/08 00:40:05;;;;;;;20.25;9.20;;;;;;;;;;5063204;28;20396;-39
2023/12/08 00:42:32;;;;;;;25.33;9.70;;;;;;;;;;5073647;28;20903;-39
2023/12/08 00:44:59;;;;;;;20.75;10.07;;;;;;;;;;5074998;28;20395;-40
2023/12/08 00:47:26;;;;;;;20.05;9.40;;;;;;;;;;5067519;28;20417;-39
2023/12/08 00:49:53;;;;;;;25.15;10.20;;;;;;;;;;5077768;28;20488;-40
2023/12/08 00:52:20;;;;;;;23.17;9.85;;;;;;;;;;5071117;28;20402;-40
2023/12/08 00:54:49;;;;;;;26.75;9.60;;;;;;;;;;5084917;28;20397;-39
2023/12/08 00:57:16;;;;;;;25.10;9.90;;;;;;;;;;5086650;28;20472;-40
2023/12/08 00:59:43;;;;;;;30.02;10.52;;;;;;;;;;5077425;28;20930;-40
2023/12/08 01:02:10;;;;;;;24.95;10.20;;;;;;;;;;5087946;28;20394;-39
2023/12/08 01:04:39;;;;;;;26.30;9.77;;;;;;;;;;5048632;28;20396;-39
2023/12/08 01:07:06;;;;;;;24.80;9.90;;;;;;;;;;5083974;28;20392;-41
2023/12/08 01:09:33;;;;;;;26.57;9.73;;;;;;;;;;5078211;28;20436;-39
2023/12/08 01:12:01;;;;;;;24.05;10.05;;;;;;;;;;5075308;28;20894;-40
2023/12/08 01:14:28;;;;;;;36.83;11.63;;;;;;;;;;5067980;28;20428;-39
2023/12/08 01:16:55;;;;;;;52.50;16.60;;;;;;;;;;5057620;28;20436;-39
2023/12/08 01:19:22;;;;;;;72.45;20.10;;;;;;;;;;5067868;28;20522;-39
2023/12/08 01:21:49;;;;;;;140.73;36.05;;;;;;;;;;5066223;28;20459;-40
2023/12/08 01:24:17;;;;;;;149.57;40.20;;;;;;;;;;5076540;28;20393;-40
2023/12/08 01:26:44;;;;;;;179.10;44.75;;;;;;;;;;5080604;28;20512;-40
2023/12/08 01:29:14;;;;;;;186.32;47.67;;;;;;;;;;5080689;28;20412;-39
2023/12/08 01:31:41;;;;;;;199.85;51.58;;;;;;;;;;5061279;28;20406;-40
2023/12/08 01:34:08;;;;;;;202.55;51.83;;;;;;;;;;5076266;28;20392;-39
2023/12/08 01:36:35;;;;;;;189.87;50.13;;;;;;;;;;5079646;28;20414;-39
2023/12/08 01:39:05;;;;;;;188.82;51.53;;;;;;;;;;5056461;28;20428;-40
2023/12/08 01:41:33;;;;;;;179.85;49.10;;;;;;;;;;5075900;28;20635;-40
2023/12/08 01:44:00;;;;;;;174.55;48.22;;;;;;;;;;5052929;28;20516;-39
2023/12/08 01:46:28;;;;;;;167.13;48.92;;;;;;;;;;5060171;28;20883;-40
2023/12/08 01:48:55;;;;;;;158.95;45.67;;;;;;;;;;5065924;28;20844;-40
2023/12/08 01:51:22;;;;;;;152.02;44.22;;;;;;;;;;5078752;28;20402;-39
2023/12/08 01:53:49;;;;;;;153.38;43.33;;;;;;;;;;5067606;28;20871;-40
2023/12/08 01:56:17;;;;;;;139.73;40.92;;;;;;;;;;5056762;28;20421;-39
2023/12/08 01:58:44;;;;;;;148.68;41.97;;;;;;;;;;5063713;28;20397;-40
2023/12/08 02:01:11;;;;;;;145.38;41.75;;;;;;;;;;5084944;28;20463;-39
2023/12/08 02:03:40;;;;;;;140.52;41.90;;;;;;;;;;5074328;28;20812;-39
2023/12/08 02:06:07;;;;;;;135.45;41.13;;;;;;;;;;5071635;28;20805;-39
2023/12/08 02:08:34;;;;;;;141.50;41.35;;;;;;;;;;5087799;28;20390;-40
2023/12/08 02:11:01;;;;;;;132.65;39.10;;;;;;;;;;5070740;28;20392;-39
2023/12/08 02:13:28;;;;;;;118.10;37.13;;;;;;;;;;5082940;28;20914;-39
2023/12/08 02:16:00;;;;;;;107.85;35.33;;;;;;;;;;5089030;28;20409;-39
2023/12/08 02:18:28;;;;;;;113.18;36.65;;;;;;;;;;5054397;28;20427;-40
2023/12/08 02:20:55;;;;;;;112.07;33.72;;;;;;;;;;5075258;28;20414;-40
2023/12/08 02:23:22;;;;;;;105.28;35.15;;;;;;;;;;5089069;28;20487;-40
2023/12/08 02:25:49;;;;;;;103.15;31.90;;;;;;;;;;5089317;28;20398;-40
2023/12/08 02:28:16;;;;;;;103.85;31.55;;;;;;;;;;5073612;28;20412;-40
2023/12/08 02:30:43;;;;;;;95.38;31.25;;;;;;;;;;5070124;28;20498;-40
2023/12/08 02:33:14;;;;;;;107.22;33.15;;;;;;;;;;5051087;28;20852;-40
2023/12/08 02:35:42;;;;;;;96.50;30.95;;;;;;;;;;5051058;28;20564;-41
2023/12/08 02:38:10;;;;;;;97.03;31.75;;;;;;;;;;5069629;28;20482;-41
2023/12/08 02:40:38;;;;;;;91.93;30.33;;;;;;;;;;5068535;28;20468;-40
2023/12/08 02:43:05;;;;;;;87.72;30.15;;;;;;;;;;5069141;28;20404;-41
2023/12/08 02:45:32;;;;;;;94.00;30.05;;;;;;;;;;5069538;28;20888;-41
2023/12/08 02:47:59;;;;;;;82.95;28.38;;;;;;;;;;5043100;28;20908;-40
2023/12/08 02:50:26;;;;;;;81.45;28.25;;;;;;;;;;5068978;28;20410;-42
2023/12/08 02:52:53;;;;;;;84.43;26.95;;;;;;;;;;5069075;28;20473;-41
2023/12/08 02:55:20;;;;;;;79.22;26.67;;;;;;;;;;5066606;28;20511;-41
2023/12/08 02:57:47;;;;;;;77.07;25.70;;;;;;;;;;5069372;28;20403;-41
2023/12/08 03:00:14;;;;;;;77.50;25.73;;;;;;;;;;5069484;28;20483;-41
2023/12/08 03:02:41;;;;;;;73.22;24.63;;;;;;;;;;5070546;28;20490;-40
2023/12/08 03:05:08;;;;;;;73.10;23.58;;;;;;;;;;5072868;28;20872;-41
2023/12/08 03:07:35;;;;;;;71.63;24.27;;;;;;;;;;5073461;28;20400;-40
2023/12/08 03:10:02;;;;;;;74.15;23.98;;;;;;;;;;5073577;28;20806;-40
2023/12/08 03:12:29;;;;;;;70.15;23.80;;;;;;;;;;5073919;28;20771;-40
2023/12/08 03:14:57;;;;;;;67.65;23.02;;;;;;;;;;5073688;28;20757;-40
2023/12/08 03:17:23;;;;;;;66.00;23.37;;;;;;;;;;5073687;28;20415;-40
2023/12/08 03:19:50;;;;;;;64.25;23.10;;;;;;;;;;5073725;28;20412;-40
2023/12/08 03:22:17;;;;;;;71.10;23.15;;;;;;;;;;5073772;28;20388;-40
2023/12/08 03:24:44;;;;;;;62.60;22.90;;;;;;;;;;5073758;28;20402;-40
2023/12/08 03:27:11;;;;;;;63.65;21.67;;;;;;;;;;5073397;28;20408;-40
2023/12/08 03:29:41;;;;;;;61.53;22.27;;;;;;;;;;5073403;28;20426;-40
2023/12/08 03:32:08;;;;;;;54.78;19.83;;;;;;;;;;5073523;28;20396;-41
2023/12/08 03:34:35;;;;;;;52.85;19.15;;;;;;;;;;5073540;28;20383;-41
2023/12/08 03:37:02;;;;;;;48.30;19.08;;;;;;;;;;5073381;28;20414;-41
2023/12/08 03:39:29;;;;;;;49.93;18.70;;;;;;;;;;5073396;28;20395;-41
2023/12/08 03:41:56;;;;;;;49.63;18.17;;;;;;;;;;5073309;28;20869;-41
2023/12/08 03:44:23;;;;;;;51.25;17.70;;;;;;;;;;5073157;28;20384;-41
2023/12/08 03:46:50;;;;;;;48.33;17.37;;;;;;;;;;5073322;28;20419;-41
2023/12/08 03:49:18;;;;;;;50.78;17.75;;;;;;;;;;5073176;28;20383;-41
2023/12/08 03:51:45;;;;;;;50.33;17.35;;;;;;;;;;5073003;28;20402;-40
2023/12/08 03:54:12;;;;;;;41.50;17.23;;;;;;;;;;5055389;28;20749;-41
2023/12/08 03:56:39;;;;;;;42.45;16.27;;;;;;;;;;5054937;28;20407;-41
2023/12/08 03:59:06;;;;;;;47.58;17.83;;;;;;;;;;5072977;28;20444;-41
2023/12/08 04:01:33;;;;;;;45.58;16.92;;;;;;;;;;5073025;28;20430;-41
2023/12/08 04:04:00;;;;;;;47.33;17.10;;;;;;;;;;5072860;28;20383;-41
2023/12/08 04:06:27;;;;;;;41.35;15.45;;;;;;;;;;5072968;28;20474;-41
2023/12/08 04:08:54;;;;;;;38.97;15.33;;;;;;;;;;5072881;28;21035;-41
2023/12/08 04:11:21;;;;;;;42.53;16.17;;;;;;;;;;5072907;28;20517;-41
2023/12/08 04:13:49;;;;;;;41.63;15.63;;;;;;;;;;5072386;28;20380;-41
2023/12/08 04:16:16;;;;;;;39.42;15.48;;;;;;;;;;5072221;28;20407;-41
2023/12/08 04:18:43;;;;;;;37.25;15.35;;;;;;;;;;5072696;28;20399;-41
2023/12/08 04:21:10;;;;;;;39.88;16.05;;;;;;;;;;5072655;28;20406;-41
2023/12/08 04:23:37;;;;;;;38.90;14.85;;;;;;;;;;5072465;28;20901;-40
2023/12/08 04:26:07;;;;;;;39.17;15.27;;;;;;;;;;5072553;28;20450;-41
2023/12/08 04:28:33;;;;;;;38.30;15.03;;;;;;;;;;5072115;28;20461;-41
2023/12/08 04:31:00;;;;;;;40.85;15.57;;;;;;;;;;5072311;28;20392;-41
2023/12/08 04:33:27;;;;;;;39.53;15.50;;;;;;;;;;5072269;28;20387;-41
2023/12/08 04:35:54;;;;;;;37.90;14.68;;;;;;;;;;5072273;28;20483;-41
2023/12/08 04:38:21;;;;;;;37.42;14.57;;;;;;;;;;5072337;28;20462;-41
2023/12/08 04:40:48;;;;;;;36.58;15.13;;;;;;;;;;5072257;28;20458;-41
2023/12/08 04:43:15;;;;;;;34.30;14.00;;;;;;;;;;5072034;28;20384;-41
2023/12/08 04:45:42;;;;;;;32.85;13.52;;;;;;;;;;5072207;28;20869;-41
2023/12/08 04:48:09;;;;;;;36.05;13.98;;;;;;;;;;5072030;28;20384;-41
2023/12/08 04:50:36;;;;;;;33.17;13.15;;;;;;;;;;5072100;28;20791;-41
2023/12/08 04:53:03;;;;;;;35.80;14.25;;;;;;;;;;5071841;28;20902;-41
2023/12/08 04:55:30;;;;;;;32.33;13.30;;;;;;;;;;5071794;28;21033;-41
2023/12/08 04:57:57;;;;;;;32.35;13.25;;;;;;;;;;5071952;28;20387;-41
2023/12/08 05:00:24;;;;;;;29.85;12.57;;;;;;;;;;5071702;28;20806;-41
2023/12/08 05:02:51;;;;;;;31.17;12.80;;;;;;;;;;5071670;28;20468;-41
2023/12/08 05:05:18;;;;;;;31.98;13.13;;;;;;;;;;5071728;28;20430;-41
2023/12/08 05:07:45;;;;;;;31.95;12.60;;;;;;;;;;5071759;28;20414;-41
2023/12/08 05:10:12;;;;;;;31.42;12.98;;;;;;;;;;5071705;28;20391;-41
2023/12/08 05:12:39;;;;;;;27.92;11.68;;;;;;;;;;5071447;28;20387;-41
2023/12/08 05:15:06;;;;;;;29.95;11.55;;;;;;;;;;5071501;28;20395;-41
2023/12/08 05:17:33;;;;;;;29.13;12.20;;;;;;;;;;5071416;28;20873;-41
2023/12/08 05:20:03;;;;;;;28.23;12.07;;;;;;;;;;5071481;28;20400;-41
2023/12/08 05:22:30;;;;;;;28.90;12.10;;;;;;;;;;5071107;28;20853;-42
2023/12/08 05:24:57;;;;;;;29.65;11.90;;;;;;;;;;5071312;28;20376;-41
2023/12/08 05:27:24;;;;;;;29.87;11.90;;;;;;;;;;5070204;28;20408;-41
2023/12/08 05:29:51;;;;;;;26.35;11.40;;;;;;;;;;5071257;28;20402;-41
2023/12/08 05:32:18;;;;;;;27.23;10.85;;;;;;;;;;5070873;28;20734;-41
2023/12/08 05:34:45;;;;;;;28.95;11.15;;;;;;;;;;5071074;28;20399;-40
2023/12/08 05:37:12;;;;;;;29.25;10.52;;;;;;;;;;5070962;28;20836;-40
2023/12/08 05:39:39;;;;;;;25.10;10.52;;;;;;;;;;5070873;28;20501;-41
2023/12/08 05:42:06;;;;;;;29.50;10.88;;;;;;;;;;5070700;28;20392;-41
2023/12/08 05:44:33;;;;;;;24.00;9.85;;;;;;;;;;5070894;28;20430;-40
2023/12/08 05:47:00;;;;;;;25.83;9.75;;;;;;;;;;5070929;28;20387;-40
2023/12/08 05:49:26;;;;;;;20.77;9.40;;;;;;;;;;5070997;28;20387;-40
2023/12/08 05:51:53;;;;;;;22.23;9.80;;;;;;;;;;5070882;28;20376;-40
2023/12/08 05:54:20;;;;;;;21.90;9.43;;;;;;;;;;5070960;28;20395;-40
2023/12/08 05:56:48;;;;;;;24.98;10.25;;;;;;;;;;5070729;28;20417;-40
2023/12/08 05:59:15;;;;;;;24.00;9.60;;;;;;;;;;5070853;28;20946;-40
2023/12/08 06:01:42;;;;;;;23.13;8.97;;;;;;;;;;5067837;28;20403;-41
2023/12/08 06:04:09;;;;;;;21.67;8.95;;;;;;;;;;5070597;28;20865;-40
2023/12/08 06:06:36;;;;;;;19.67;8.82;;;;;;;;;;5070633;28;20380;-41
2023/12/08 06:09:07;;;;;;;20.10;8.50;;;;;;;;;;5070514;28;20467;-41
2023/12/08 06:11:34;;;;;;;19.70;8.55;;;;;;;;;;5070560;28;20418;-39
2023/12/08 06:14:01;;;;;;;20.83;8.07;;;;;;;;;;5070317;28;20403;-41
2023/12/08 06:16:28;;;;;;;20.87;8.10;;;;;;;;;;5070563;28;20411;-41
2023/12/08 06:18:55;;;;;;;20.33;8.18;;;;;;;;;;5070376;28;20520;-41
2023/12/08 06:21:22;;;;;;;20.10;8.50;;;;;;;;;;5070456;28;20384;-41
2023/12/08 06:23:49;;;;;;;17.52;7.85;;;;;;;;;;5070291;28;20733;-41
2023/12/08 06:26:16;;;;;;;19.88;7.82;;;;;;;;;;5070505;28;20409;-41
2023/12/08 06:28:43;;;;;;;18.55;7.40;;;;;;;;;;5070086;28;20498;-40
2023/12/08 06:31:10;;;;;;;17.00;7.07;;;;;;;;;;5070389;28;20379;-41
2023/12/08 06:33:37;;;;;;;16.25;6.88;;;;;;;;;;5070275;28;20899;-41
2023/12/08 06:36:05;;;;;;;14.48;6.50;;;;;;;;;;5070246;28;20410;-40
2023/12/08 06:38:33;;;;;;;16.33;6.50;;;;;;;;;;5069960;28;20537;-41
2023/12/08 06:41:00;;;;;;;16.43;6.70;;;;;;;;;;5070144;28;20387;-41
2023/12/08 06:43:27;;;;;;;14.40;6.80;;;;;;;;;;5070073;28;20383;-41
2023/12/08 06:45:54;;;;;;;16.88;7.38;;;;;;;;;;5070209;28;20455;-40
2023/12/08 06:48:23;;;;;;;15.43;6.47;;;;;;;;;;5070245;28;20454;-40
2023/12/08 06:50:51;;;;;;;14.80;6.32;;;;;;;;;;5070000;28;20423;-40
2023/12/08 06:53:18;;;;;;;13.63;5.85;;;;;;;;;;5052089;28;20982;-40
2023/12/08 06:55:45;;;;;;;15.10;5.63;;;;;;;;;;5070024;28;20407;-40
2023/12/08 06:58:13;;;;;;;14.45;6.03;;;;;;;;;;5070237;28;20391;-40
2023/12/08 07:00:40;;;;;;;15.98;5.75;;;;;;;;;;5069978;28;20375;-41
2023/12/08 07:03:07;;;;;;;10.32;4.93;;;;;;;;;;5070078;28;20765;-41
2023/12/08 07:05:34;;;;;;;13.07;5.45;;;;;;;;;;5070082;28;20877;-41
2023/12/08 07:08:00;;;;;;;12.18;5.30;;;;;;;;;;5069909;28;20380;-40
2023/12/08 07:10:27;;;;;;;14.02;5.18;;;;;;;;;;5070021;28;21039;-40
2023/12/08 07:12:54;;;;;;;11.43;4.93;;;;;;;;;;5069915;28;20383;-40
2023/12/08 07:15:21;;;;;;;10.80;4.82;;;;;;;;;;5070028;28;20387;-41
2023/12/08 07:17:49;;;;;;;11.50;4.53;;;;;;;;;;5069807;28;20508;-41
2023/12/08 07:20:18;;;;;;;10.10;4.40;;;;;;;;;;5069788;28;20388;-40
2023/12/08 07:22:45;;;;;;;10.65;4.22;;;;;;;;;;5069520;28;20441;-41
2023/12/08 07:25:14;;;;;;;9.00;4.03;;;;;;;;;;5069845;28;20963;-40
2023/12/08 07:27:42;;;;;;;10.90;4.13;;;;;;;;;;5069637;28;20435;-41
2023/12/08 07:30:09;;;;;;;8.07;3.55;;;;;;;;;;5069660;28;20734;-41
2023/12/08 07:32:36;;;;;;;8.57;3.40;;;;;;;;;;5069571;28;20399;-41
2023/12/08 07:35:04;;;;;;;9.38;3.63;;;;;;;;;;5069606;28;20444;-40
2023/12/08 07:37:31;;;;;;;8.77;3.40;;;;;;;;;;5069719;28;20969;-40
2023/12/08 07:39:58;;;;;;;8.48;2.97;;;;;;;;;;5069733;28;20430;-40
2023/12/08 07:42:25;;;;;;;8.40;3.10;;;;;;;;;;5069628;28;20449;-41
2023/12/08 07:44:52;;;;;;;6.45;2.60;;;;;;;;;;5069696;28;20874;-41
2023/12/08 07:47:20;;;;;;;5.10;2.10;;;;;;;;;;5069557;28;20383;-41
2023/12/08 07:49:47;;;;;;;5.13;2.33;;;;;;;;;;5070783;28;20387;-41
2023/12/08 07:52:15;;;;;;;6.35;2.03;;;;;;;;;;5073111;28;21054;-41
2023/12/08 07:54:42;;;;;;;7.50;2.28;;;;;;;;;;5073049;28;20383;-41
2023/12/08 07:57:09;;;;;;;6.82;1.90;;;;;;;;;;5073063;28;20403;-41
2023/12/08 07:59:36;;;;;;;6.20;2.00;;;;;;;;;;5073074;28;20450;-41
2023/12/08 08:02:03;;;;;;;5.68;2.25;;;;;;;;;;5073061;28;20399;-41
2023/12/08 08:04:30;;;;;;;5.88;2.10;;;;;;;;;;5072818;28;20797;-41
2023/12/08 08:06:57;;;;;;;5.85;2.70;;;;;;;;;;5072960;28;20387;-41
2023/12/08 08:09:24;;;;;;;5.93;2.28;;;;;;;;;;5072871;28;20437;-41
2023/12/08 08:11:51;;;;;;;5.32;2.10;;;;;;;;;;5072881;28;20422;-41
2023/12/08 08:14:20;;;;;;;5.22;1.95;;;;;;;;;;5072610;28;20379;-41
2023/12/08 08:16:48;;;;;;;5.65;2.15;;;;;;;;;;5072555;28;20412;-41
2023/12/08 08:19:15;;;;;;;5.38;2.38;;;;;;;;;;5072525;28;20807;-41
2023/12/08 08:21:42;;;;;;;5.27;1.73;;;;;;;;;;5072569;28;20374;-41
2023/12/08 08:24:09;;;;;;;5.45;1.90;;;;;;;;;;5072614;28;20828;-41
2023/12/08 08:26:36;;;;;;;4.80;1.90;;;;;;;;;;5072499;28;20384;-41
2023/12/08 08:29:02;;;;;;;3.47;1.63;;;;;;;;;;5072228;28;20420;-41
2023/12/08 08:31:29;;;;;;;4.75;1.90;;;;;;;;;;5072523;28;20463;-41
2023/12/08 08:33:56;;;;;;;4.50;1.95;;;;;;;;;;5072356;28;20387;-41
2023/12/08 08:36:25;;;;;;;5.35;1.80;;;;;;;;;;5072338;28;20422;-41
2023/12/08 08:38:52;;;;;;;4.57;1.95;;;;;;;;;;5072202;28;20459;-40
2023/12/08 08:41:21;;;;;;;3.92;1.83;;;;;;;;;;5072401;28;20388;-40
2023/12/08 08:43:50;;;;;;;3.92;1.60;;;;;;;;;;5071957;28;20445;-41
2023/12/08 08:46:17;;;;;;;6.70;1.80;;;;;;;;;;5072060;28;20399;-41
2023/12/08 08:48:44;;;;;;;4.47;1.58;;;;;;;;;;5072291;28;20380;-41
2023/12/08 08:51:11;;;;;;;4.35;1.60;;;;;;;;;;5072180;28;20498;-41
2023/12/08 08:53:38;;;;;;;3.65;1.50;;;;;;;;;;5072011;28;20392;-40
2023/12/08 08:56:05;;;;;;;3.67;1.35;;;;;;;;;;5071939;28;20408;-41
2023/12/08 08:58:35;;;;;;;4.63;1.40;;;;;;;;;;5071970;28;20727;-41
2023/12/08 09:01:02;;;;;;;4.07;1.58;;;;;;;;;;5071875;28;20386;-41
2023/12/08 09:03:29;;;;;;;4.37;1.47;;;;;;;;;;5071799;28;20790;-41
2023/12/08 09:05:56;;;;;;;3.65;1.25;;;;;;;;;;5071825;28;20387;-41
2023/12/08 09:08:23;;;;;;;3.65;1.50;;;;;;;;;;5071683;28;20929;-41
2023/12/08 09:10:50;;;;;;;4.00;1.40;;;;;;;;;;5071773;28;20383;-41
2023/12/08 09:13:17;;;;;;;4.53;1.45;;;;;;;;;;5071547;28;20379;-41
2023/12/08 09:15:44;;;;;;;3.58;1.38;;;;;;;;;;5071558;28;20374;-41
2023/12/08 09:18:11;;;;;;;3.88;1.30;;;;;;;;;;5071626;28;20384;-41
2023/12/08 09:20:38;;;;;;;3.22;1.50;;;;;;;;;;5071550;28;20388;-41
2023/12/08 09:23:05;;;;;;;4.00;1.20;;;;;;;;;;5071402;28;20380;-41
2023/12/08 09:25:32;;;;;;;4.30;1.30;;;;;;;;;;5071433;28;20410;-41
2023/12/08 09:27:59;;;;;;;2.92;1.30;;;;;;;;;;5071220;28;20516;-41
2023/12/08 09:30:27;;;;;;;4.35;1.23;;;;;;;;;;5071223;28;20722;-41
2023/12/08 09:32:54;;;;;;;3.30;1.23;;;;;;;;;;5071191;28;20388;-41
2023/12/08 09:35:21;;;;;;;3.00;1.40;;;;;;;;;;5071311;28;20372;-41
2023/12/08 09:37:48;;;;;;;3.45;1.35;;;;;;;;;;5070868;28;20416;-41
2023/12/08 09:40:15;;;;;;;2.80;1.23;;;;;;;;;;5071241;28;20467;-41
2023/12/08 09:42:59;;;;;;;2.85;1.30;;;;;;;;;;5071027;28;20875;-41
2023/12/08 09:45:25;;;;;;;4.03;1.33;;;;;;;;;;5070752;28;20384;-42
2023/12/08 09:47:55;;;;;;;2.17;1.00;;;;;;;;;;5069946;28;20742;-41
2023/12/08 09:50:22;;;;;;;2.20;1.10;;;;;;;;;;5070356;28;20430;-40
2023/12/08 09:52:49;;;;;;;5.93;1.50;;;;;;;;;;5069828;28;20383;-41
2023/12/08 09:55:17;;;;;;;4.35;1.40;;;;;;;;;;5052269;28;20446;-40
2023/12/08 09:57:45;;;;;;;5.70;1.52;;;;;;;;;;5070220;28;20408;-40
2023/12/08 10:00:13;;;;;;;6.53;1.63;;;;;;;;;;5066920;28;20391;-41
2023/12/08 10:02:43;;;;;;;8.05;1.60;;;;;;;;;;5052157;28;20757;-42
2023/12/08 10:05:11;;;;;;;8.23;1.73;;;;;;;;;;5070074;28;20873;-40
2023/12/08 10:07:40;;;;;;;9.98;1.50;;;;;;;;;;5070103;28;20444;-40
2023/12/08 10:10:09;;;;;;;7.63;1.58;;;;;;;;;;5069912;28;20423;-40
2023/12/08 10:12:37;;;;;;;7.28;1.65;;;;;;;;;;5069272;28;20424;-40
2023/12/08 10:15:09;;;;;;;8.23;1.65;;;;;;;;;;5069979;28;20394;-41
2023/12/08 10:17:46;;;;;;;9.70;1.80;;;;;;;;;;5069954;28;20420;-42
2023/12/08 10:20:13;;;;;;;7.55;1.73;;;;;;;;;;5070362;28;20854;-42
2023/12/08 10:22:51;;;;;;;4.97;1.40;;;;;;;;;;5070446;28;20376;-41
2023/12/08 10:25:19;;;;;;;6.90;1.60;;;;;;;;;;5070595;28;20788;-41
2023/12/08 10:27:50;;;;;;;8.80;1.40;;;;;;;;;;5070235;28;20832;-41
2023/12/08 10:30:17;;;;;;;7.32;1.60;;;;;;;;;;5052397;28;20383;-41
2023/12/08 10:32:45;;;;;;;6.38;1.33;;;;;;;;;;5070321;28;20869;-42
2023/12/08 10:35:12;;;;;;;6.60;1.48;;;;;;;;;;5070485;28;20391;-41
2023/12/08 10:37:43;;;;;;;5.80;1.50;;;;;;;;;;5070418;28;20399;-41
2023/12/08 10:40:13;;;;;;;6.43;1.43;;;;;;;;;;5070385;28;20406;-41
2023/12/08 10:42:41;;;;;;;6.88;1.70;;;;;;;;;;5070207;28;20872;-41
2023/12/08 10:45:13;;;;;;;6.07;1.40;;;;;;;;;;5052258;28;20376;-42
2023/12/08 10:47:43;;;;;;;7.05;1.40;;;;;;;;;;5069890;28;20395;-40
2023/12/08 10:50:13;;;;;;;5.80;1.60;;;;;;;;;;5070196;28;20378;-40
2023/12/08 10:52:41;;;;;;;6.93;1.20;;;;;;;;;;5070187;28;20374;-40
2023/12/08 10:55:08;;;;;;;7.97;1.58;;;;;;;;;;5070191;28;20383;-40
2023/12/08 10:57:39;;;;;;;5.15;1.40;;;;;;;;;;5070155;28;20431;-40
2023/12/08 11:00:16;;;;;;;8.85;1.30;;;;;;;;;;5070112;28;20438;-40
2023/12/08 11:02:44;;;;;;;7.05;1.67;;;;;;;;;;5069896;28;20459;-40
2023/12/08 11:05:13;;;;;;;7.05;1.40;;;;;;;;;;5070107;28;20926;-42
2023/12/08 11:07:43;;;;;;;6.75;1.42;;;;;;;;;;5070116;28;20403;-41
2023/12/08 11:10:11;;;;;;;6.60;1.30;;;;;;;;;;5070105;28;20368;-41
2023/12/08 11:12:44;;;;;;;7.88;1.30;;;;;;;;;;5069916;28;20363;-41
2023/12/08 11:15:16;;;;;;;8.10;1.70;;;;;;;;;;5070016;28;20433;-41
2023/12/08 11:17:49;;;;;;;7.28;1.30;;;;;;;;;;5069951;28;20407;-41
2023/12/08 11:20:17;;;;;;;7.93;1.40;;;;;;;;;;5069958;28;20375;-41
2023/12/08 11:22:48;;;;;;;6.70;1.30;;;;;;;;;;5069756;28;20368;-42
2023/12/08 11:25:28;;;;;;;10.13;1.67;;;;;;;;;;5071804;28;20390;-42
2023/12/08 11:28:05;;;;;;;10.43;1.60;;;;;;;;;;5073378;28;20435;-39
2023/12/08 11:30:40;;;;;;;6.45;1.40;;;;;;;;;;5073583;28;20372;-41
2023/12/08 11:33:16;;;;;;;7.47;1.48;;;;;;;;;;5073472;28;20433;-41
2023/12/08 11:35:51;;;;;;;9.18;1.50;;;;;;;;;;5073030;28;20449;-40
2023/12/08 11:38:30;;;;;;;7.80;1.50;;;;;;;;;;5073431;28;20383;-40
2023/12/08 11:40:57;;;;;;;9.30;1.40;;;;;;;;;;5073482;28;20788;-40
2023/12/08 11:43:24;;;;;;;8.55;1.35;;;;;;;;;;5073339;28;20368;-40
2023/12/08 11:45:52;;;;;;;8.73;1.35;;;;;;;;;;5073437;28;20418;-40
2023/12/08 11:48:20;;;;;;;7.78;1.38;;;;;;;;;;5073356;28;20368;-40
2023/12/08 11:50:48;;;;;;;8.93;1.30;;;;;;;;;;5073209;28;20367;-40
2023/12/08 11:53:15;;;;;;;5.60;1.20;;;;;;;;;;5073083;28;20436;-40
2023/12/08 11:55:41;;;;;;;7.93;1.20;;;;;;;;;;5073066;28;20916;-40
2023/12/08 11:58:09;;;;;;;5.80;1.27;;;;;;;;;;5073051;28;20364;-40
2023/12/08 12:00:37;;;;;;;7.60;1.20;;;;;;;;;;5073134;28;20436;-40
2023/12/08 12:03:06;;;;;;;9.32;1.20;;;;;;;;;;5072965;28;20360;-40
2023/12/08 12:05:33;;;;;;;5.67;1.37;;;;;;;;;;5073081;28;20370;-40
2023/12/08 12:08:00;;;;;;;6.45;1.33;;;;;;;;;;5072917;28;20388;-40
2023/12/08 12:10:28;;;;;;;9.02;1.30;;;;;;;;;;5073121;28;20718;-38
2023/12/08 12:13:03;;;;;;;8.55;1.27;;;;;;;;;;5072812;28;20453;-40
2023/12/08 12:15:30;;;;;;;9.48;1.50;;;;;;;;;;5072685;28;20372;-40
2023/12/08 12:17:59;;;;;;;9.13;1.50;;;;;;;;;;5054607;28;20453;-40
2023/12/08 12:20:28;;;;;;;7.90;1.50;;;;;;;;;;5072636;28;20388;-40
2023/12/08 12:22:56;;;;;;;11.13;1.48;;;;;;;;;;5072247;28;20376;-40
2023/12/08 12:25:23;;;;;;;8.82;1.25;;;;;;;;;;5072656;28;20394;-41
2023/12/08 12:27:50;;;;;;;11.40;1.60;;;;;;;;;;5072437;28;20492;-41
2023/12/08 12:30:17;;;;;;;13.55;1.90;;;;;;;;;;5071695;28;20391;-42
2023/12/08 12:32:47;;;;;;;13.70;1.33;;;;;;;;;;5072376;28;20384;-41
2023/12/08 12:35:14;;;;;;;12.05;1.80;;;;;;;;;;5072099;28;20443;-41
2023/12/08 12:37:41;;;;;;;23.48;2.22;;;;;;;;;;5072358;28;20411;-41
2023/12/08 12:40:09;;;;;;;20.60;2.15;;;;;;;;;;5072356;28;20380;-41
2023/12/08 12:42:40;;;;;;;13.35;1.80;;;;;;;;;;5072183;28;20439;-42
2023/12/08 12:45:07;;;;;;;14.95;1.73;;;;;;;;;;5072174;28;20376;-41
2023/12/08 12:47:34;;;;;;;12.98;1.67;;;;;;;;;;5072255;28;20375;-41
2023/12/08 12:50:04;;;;;;;13.50;1.67;;;;;;;;;;5072182;28;20453;-41
2023/12/08 12:52:31;;;;;;;15.30;1.73;;;;;;;;;;5072250;28;20368;-41
2023/12/08 12:54:58;;;;;;;13.15;1.92;;;;;;;;;;5072001;28;20923;-41
2023/12/08 12:57:49;;;;;;;14.38;2.10;;;;;;;;;;5071897;28;20419;-42
2023/12/08 13:00:31;;;;;;;15.05;1.88;;;;;;;;;;5071813;28;20989;-41
2023/12/08 13:03:05;;;;;;;9.38;1.52;;;;;;;;;;5071709;28;20802;-42
2023/12/08 13:05:32;;;;;;;9.40;1.63;;;;;;;;;;5071758;28;20749;-41
2023/12/08 13:07:59;;;;;;;9.85;1.40;;;;;;;;;;5071604;28;20395;-41
2023/12/08 13:10:29;;;;;;;17.80;2.03;;;;;;;;;;5071637;28;20443;-41
2023/12/08 13:12:56;;;;;;;10.23;1.48;;;;;;;;;;5071277;28;20374;-41
2023/12/08 13:15:23;;;;;;;8.77;1.48;;;;;;;;;;5071527;28;20388;-41
2023/12/08 13:17:50;;;;;;;6.95;1.33;;;;;;;;;;5070559;28;20466;-41
2023/12/08 13:20:18;;;;;;;9.32;1.60;;;;;;;;;;5071041;28;20396;-41
2023/12/08 13:22:45;;;;;;;8.43;1.58;;;;;;;;;;5071063;28;20398;-41
2023/12/08 13:25:12;;;;;;;8.70;1.73;;;;;;;;;;5071345;28;20372;-41
2023/12/08 13:27:39;;;;;;;12.43;1.70;;;;;;;;;;5071153;28;20479;-41
2023/12/08 13:30:07;;;;;;;9.93;1.50;;;;;;;;;;5070611;28;20402;-40
2023/12/08 13:32:34;;;;;;;7.32;1.55;;;;;;;;;;5071042;28;20444;-41
2023/12/08 13:35:01;;;;;;;13.37;1.83;;;;;;;;;;5071220;28;20930;-44
2023/12/08 13:37:28;;;;;;;8.80;1.60;;;;;;;;;;5070363;28;20427;-44
2023/12/08 13:39:56;;;;;;;15.52;1.83;;;;;;;;;;5069782;28;20478;-44
2023/12/08 13:42:22;;;;;;;7.47;1.67;;;;;;;;;;5070888;28;20383;-43
2023/12/08 13:44:49;;;;;;;10.98;1.83;;;;;;;;;;5071002;28;20398;-44
2023/12/08 13:47:17;;;;;;;13.18;2.00;;;;;;;;;;5070314;28;20739;-44
2023/12/08 13:49:47;;;;;;;12.20;1.80;;;;;;;;;;5071078;28;20431;-44
2023/12/08 13:52:14;;;;;;;10.50;1.70;;;;;;;;;;5071064;28;21601;-45
2023/12/08 13:54:41;;;;;;;12.85;1.48;;;;;;;;;;5070980;28;20778;-44
2023/12/08 13:57:08;;;;;;;11.30;1.80;;;;;;;;;;5070859;28;20410;-45
2023/12/08 13:59:35;;;;;;;7.70;1.50;;;;;;;;;;5071188;28;20387;-44
2023/12/08 14:02:02;;;;;;;8.23;1.40;;;;;;;;;;5070792;28;20394;-44
2023/12/08 14:04:29;;;;;;;5.47;1.30;;;;;;;;;;5070867;28;20425;-44
2023/12/08 14:06:56;;;;;;;8.80;1.85;;;;;;;;;;5070826;28;20838;-45
2023/12/08 14:09:23;;;;;;;9.07;1.42;;;;;;;;;;5070795;28;20866;-47
2023/12/08 14:11:51;;;;;;;7.35;1.35;;;;;;;;;;5070653;28;20451;-42
2023/12/08 14:14:18;;;;;;;11.20;1.70;;;;;;;;;;5070556;28;20730;-44
2023/12/08 14:16:45;;;;;;;8.17;1.67;;;;;;;;;;5070595;28;20747;-44
2023/12/08 14:19:13;;;;;;;11.95;2.00;;;;;;;;;;5070612;28;20376;-44
2023/12/08 14:21:41;;;;;;;13.67;1.80;;;;;;;;;;5070379;28;20390;-44
2023/12/08 14:24:08;;;;;;;14.35;1.83;;;;;;;;;;5070425;28;20907;-44
2023/12/08 14:26:35;;;;;;;11.18;1.45;;;;;;;;;;5070388;28;20396;-43
2023/12/08 14:29:02;;;;;;;6.72;1.52;;;;;;;;;;5070352;28;20411;-44
2023/12/08 14:31:29;;;;;;;8.02;1.70;;;;;;;;;;5070480;28;20378;-44
2023/12/08 14:33:56;;;;;;;8.98;1.50;;;;;;;;;;5070336;28;20372;-44